createdAt,value
2023-04-08T00:01:32.961Z,25.35
2023-04-08T00:04:35.277Z,27.38
2023-04-08T00:07:37.529Z,28.60
2023-04-08T00:10:40.772Z,30.05
2023-04-08T00:13:42.717Z,28.27
2023-04-08T00:16:44.754Z,28.42
2023-04-08T00:19:47.054Z,26.85
2023-04-08T00:22:49.233Z,26.70
2023-04-08T00:25:51.252Z,27.25
2023-04-08T00:28:53.220Z,26.77
2023-04-08T00:31:55.724Z,26.70
2023-04-08T00:34:58.358Z,31.40
2023-04-08T00:38:00.988Z,27.97
2023-04-08T00:41:03.205Z,29.88
2023-04-08T00:44:05.388Z,26.55
2023-04-08T00:47:07.611Z,32.22
2023-04-08T00:50:10.952Z,27.90
2023-04-08T00:53:17.265Z,31.53
2023-04-08T00:56:19.149Z,29.02
2023-04-08T00:59:21.295Z,27.27
2023-04-08T01:02:45.857Z,35.13
2023-04-08T01:05:59.033Z,34.25
2023-04-08T01:09:05.340Z,33.33
2023-04-08T01:12:10.278Z,31.25
2023-04-08T01:15:12.665Z,27.15
2023-04-08T01:18:16.098Z,30.25
2023-04-08T01:21:19.077Z,30.20
2023-04-08T01:24:29.894Z,29.03
2023-04-08T01:27:33.205Z,26.88
2023-04-08T01:30:39.206Z,30.50
2023-04-08T01:33:41.867Z,31.05
2023-04-08T01:36:47.097Z,28.45
2023-04-08T01:39:51.037Z,27.23
2023-04-08T01:42:55.913Z,28.85
2023-04-08T01:45:58.984Z,27.98
2023-04-08T01:49:01.599Z,23.00
2023-04-08T01:52:06.711Z,27.60
2023-04-08T01:55:08.797Z,28.60
2023-04-08T01:58:16.709Z,26.63
2023-04-08T02:01:22.617Z,27.50
2023-04-08T02:04:25.028Z,25.42
2023-04-08T02:07:27.048Z,25.52
2023-04-08T02:10:32.937Z,29.90
2023-04-08T02:13:35.073Z,24.65
2023-04-08T02:16:41.237Z,26.20
2023-04-08T02:19:58.421Z,24.25
2023-04-08T02:23:20.143Z,24.00
2023-04-08T02:26:23.672Z,23.17
2023-04-08T02:29:29.914Z,24.88
2023-04-08T02:32:33.830Z,26.60
2023-04-08T02:35:36.980Z,24.58
2023-04-08T02:38:39.104Z,25.17
2023-04-08T02:41:40.990Z,26.23
2023-04-08T02:44:42.906Z,22.88
2023-04-08T02:47:44.897Z,27.05
2023-04-08T02:50:46.934Z,27.13
2023-04-08T02:53:49.246Z,29.85
2023-04-08T02:56:51.230Z,24.37
2023-04-08T02:59:53.202Z,22.55
2023-04-08T03:02:55.494Z,24.30
2023-04-08T03:05:58.662Z,28.55
2023-04-08T03:09:00.837Z,26.25
2023-04-08T03:12:02.884Z,26.07
2023-04-08T03:15:05.151Z,23.77
2023-04-08T03:18:07.372Z,25.73
2023-04-08T03:21:09.343Z,27.50
2023-04-08T03:24:11.397Z,24.67
2023-04-08T03:27:14.232Z,25.53
2023-04-08T03:30:16.260Z,25.92
2023-04-08T03:33:18.880Z,22.48
2023-04-08T03:36:20.754Z,23.58
2023-04-08T03:39:22.812Z,25.42
2023-04-08T03:42:24.848Z,24.00
2023-04-08T03:45:26.877Z,23.17
2023-04-08T03:48:28.755Z,25.25
2023-04-08T03:51:30.764Z,23.38
2023-04-08T03:54:32.961Z,22.88
2023-04-08T03:57:34.802Z,25.27
2023-04-08T04:00:37.270Z,23.75
2023-04-08T04:03:39.907Z,23.23
2023-04-08T04:06:41.934Z,21.70
2023-04-08T04:09:44.083Z,24.70
2023-04-08T04:12:46.510Z,22.83
2023-04-08T04:15:48.523Z,25.13
2023-04-08T04:18:53.208Z,25.70
2023-04-08T04:21:55.380Z,24.67
2023-04-08T04:24:57.383Z,22.65
2023-04-08T04:27:59.281Z,26.70
2023-04-08T04:31:01.862Z,26.98
2023-04-08T04:34:03.831Z,21.10
2023-04-08T04:37:05.765Z,22.80
2023-04-08T04:40:08.383Z,23.00
2023-04-08T04:43:10.781Z,23.33
2023-04-08T04:46:12.661Z,24.90
2023-04-08T04:49:14.700Z,25.10
2023-04-08T04:52:16.722Z,24.00
2023-04-08T04:55:18.729Z,23.30
2023-04-08T04:58:20.732Z,25.30
2023-04-08T05:01:23.027Z,20.73
2023-04-08T05:04:25.588Z,23.10
2023-04-08T05:07:27.761Z,23.95
2023-04-08T05:10:33.429Z,27.00
2023-04-08T05:13:35.559Z,25.27
2023-04-08T05:16:38.859Z,24.20
2023-04-08T05:19:40.874Z,26.67
2023-04-08T05:22:44.621Z,28.42
2023-04-08T05:25:46.630Z,26.15
2023-04-08T05:28:49.889Z,24.13
2023-04-08T05:31:52.165Z,24.65
2023-04-08T05:34:54.455Z,25.42
2023-04-08T05:37:56.368Z,24.52
2023-04-08T05:40:58.278Z,39.88
2023-04-08T05:44:00.283Z,24.17
2023-04-08T05:47:02.484Z,24.33
2023-04-08T05:50:04.875Z,21.42
2023-04-08T05:53:06.778Z,21.08
2023-04-08T05:56:08.652Z,24.75
2023-04-08T05:59:10.532Z,22.90
2023-04-08T06:02:12.533Z,18.45
2023-04-08T06:05:14.610Z,22.42
2023-04-08T06:08:16.631Z,24.38
2023-04-08T06:11:18.537Z,22.50
2023-04-08T06:14:20.930Z,22.47
2023-04-08T06:17:23.296Z,23.95
2023-04-08T06:20:26.611Z,24.48
2023-04-08T06:23:29.751Z,29.30
2023-04-08T06:26:31.880Z,26.85
2023-04-08T06:29:34.043Z,31.53
2023-04-08T06:32:36.477Z,23.85
2023-04-08T06:35:38.507Z,23.60
2023-04-08T06:38:40.630Z,17.75
2023-04-08T06:41:42.881Z,18.40
2023-04-08T06:45:01.245Z,17.23
2023-04-08T06:48:03.404Z,26.58
2023-04-08T06:51:07.826Z,17.10
2023-04-08T06:54:12.671Z,15.00
2023-04-08T06:57:14.592Z,11.73
2023-04-08T07:00:17.331Z,14.33
2023-04-08T07:03:19.460Z,11.52
2023-04-08T07:06:21.534Z,10.60
2023-04-08T07:09:23.657Z,12.48
2023-04-08T07:12:25.820Z,11.80
2023-04-08T07:15:28.105Z,13.50
2023-04-08T07:18:30.813Z,11.55
2023-04-08T07:21:32.729Z,12.00
2023-04-08T07:24:35.081Z,11.15
2023-04-08T07:27:36.974Z,13.15
2023-04-08T07:30:39.039Z,13.17
2023-04-08T07:33:41.017Z,12.02
2023-04-08T07:36:43.114Z,12.90
2023-04-08T07:39:45.478Z,9.88
2023-04-08T07:42:47.494Z,10.27
2023-04-08T07:45:49.584Z,11.07
2023-04-08T07:48:52.224Z,11.02
2023-04-08T07:51:54.344Z,9.07
2023-04-08T07:54:56.419Z,11.13
2023-04-08T07:57:58.458Z,10.55
2023-04-08T08:01:00.651Z,10.33
2023-04-08T08:04:03.462Z,10.40
2023-04-08T08:07:05.741Z,11.00
2023-04-08T08:10:08.861Z,11.02
2023-04-08T08:13:12.736Z,9.32
2023-04-08T08:16:14.611Z,10.63
2023-04-08T08:19:16.750Z,12.30
2023-04-08T08:22:18.836Z,11.18
2023-04-08T08:25:21.312Z,10.50
2023-04-08T08:28:23.256Z,9.00
2023-04-08T08:31:25.240Z,9.17
2023-04-08T08:34:27.170Z,13.75
2023-04-08T08:37:29.065Z,9.80
2023-04-08T08:40:32.238Z,10.00
2023-04-08T08:43:34.703Z,11.82
2023-04-08T08:46:36.689Z,11.93
2023-04-08T08:49:38.893Z,10.52
2023-04-08T08:52:48.518Z,10.23
2023-04-08T08:56:16.658Z,8.57
2023-04-08T08:59:12.951Z,7.65
2023-04-08T09:02:29.823Z,8.37
2023-04-08T09:05:48.624Z,8.95
2023-04-08T09:08:50.493Z,10.43
2023-04-08T09:12:04.483Z,8.77
2023-04-08T09:15:08.602Z,12.55
2023-04-08T09:18:23.280Z,11.23
2023-04-08T09:21:27.437Z,12.95
2023-04-08T09:24:31.974Z,14.75
2023-04-08T09:27:36.000Z,15.48
2023-04-08T09:30:41.694Z,15.77
2023-04-08T09:33:43.584Z,13.30
2023-04-08T09:36:45.925Z,13.00
2023-04-08T09:39:48.874Z,12.30
2023-04-08T09:42:54.726Z,11.80
2023-04-08T09:45:59.740Z,10.48
2023-04-08T09:49:12.500Z,10.90
2023-04-08T09:52:19.952Z,10.93
2023-04-08T09:55:27.916Z,10.38
2023-04-08T09:58:38.438Z,13.80
2023-04-08T10:01:46.988Z,11.88
2023-04-08T10:04:51.372Z,16.13
2023-04-08T10:07:53.651Z,11.63
2023-04-08T10:10:56.541Z,11.55
2023-04-08T10:13:58.463Z,10.63
2023-04-08T10:17:35.831Z,11.23
2023-04-08T10:20:42.431Z,9.57
2023-04-08T10:23:55.373Z,10.05
2023-04-08T10:26:58.120Z,9.40
2023-04-08T10:30:00.083Z,8.32
2023-04-08T10:33:02.185Z,7.85
2023-04-08T10:36:06.921Z,7.93
2023-04-08T10:39:09.088Z,10.25
2023-04-08T10:42:12.341Z,8.00
2023-04-08T10:45:18.026Z,8.05
2023-04-08T10:48:19.905Z,9.13
2023-04-08T10:51:22.495Z,6.83
2023-04-08T10:54:24.432Z,8.77
2023-04-08T10:57:26.376Z,9.63
2023-04-08T11:00:37.565Z,7.20
2023-04-08T11:03:39.557Z,6.70
2023-04-08T11:06:46.907Z,10.80
2023-04-08T11:09:49.747Z,17.02
2023-04-08T11:12:51.744Z,9.25
2023-04-08T11:15:53.938Z,8.82
2023-04-08T11:18:56.860Z,9.02
2023-04-08T11:21:59.040Z,7.33
2023-04-08T11:25:01.849Z,8.95
2023-04-08T11:28:04.735Z,9.95
2023-04-08T11:31:08.976Z,10.02
2023-04-08T11:34:11.130Z,8.60
2023-04-08T11:37:13.561Z,8.33
2023-04-08T11:40:21.533Z,8.73
2023-04-08T11:43:23.742Z,7.35
2023-04-08T11:46:25.893Z,8.98
2023-04-08T11:49:28.455Z,7.88
2023-04-08T11:52:44.528Z,9.80
2023-04-08T11:55:47.372Z,10.02
2023-04-08T11:58:49.792Z,8.68
2023-04-08T12:01:53.243Z,10.35
2023-04-08T12:04:55.319Z,8.25
2023-04-08T12:07:57.746Z,10.63
2023-04-08T12:11:12.949Z,9.77
2023-04-08T12:14:18.674Z,9.95
2023-04-08T12:17:20.637Z,9.45
2023-04-08T12:20:25.788Z,8.10
2023-04-08T12:23:27.783Z,10.33
2023-04-08T12:26:29.785Z,11.80
2023-04-08T12:29:32.156Z,7.85
2023-04-08T12:32:35.442Z,9.25
2023-04-08T12:35:37.477Z,7.85
2023-04-08T12:38:39.456Z,9.37
2023-04-08T12:41:41.450Z,8.95
2023-04-08T12:44:43.419Z,8.68
2023-04-08T12:47:45.477Z,9.20
2023-04-08T12:50:47.919Z,8.88
2023-04-08T12:53:49.922Z,8.23
2023-04-08T12:56:51.803Z,16.35
2023-04-08T12:59:54.297Z,12.07
2023-04-08T13:02:56.386Z,7.82
2023-04-08T13:05:59.164Z,22.30
2023-04-08T13:09:01.385Z,8.70
2023-04-08T13:12:03.884Z,7.80
2023-04-08T13:15:07.152Z,8.00
2023-04-08T13:18:09.632Z,7.20
2023-04-08T13:21:11.702Z,10.23
2023-04-08T13:24:13.573Z,9.60
2023-04-08T13:27:15.595Z,8.88
2023-04-08T13:30:17.741Z,7.38
2023-04-08T13:33:20.083Z,8.20
2023-04-08T13:36:21.962Z,7.40
2023-04-08T13:39:23.938Z,7.27
2023-04-08T13:42:26.294Z,7.03
2023-04-08T13:45:28.277Z,8.27
2023-04-08T13:48:30.300Z,8.65
2023-04-08T13:51:32.412Z,9.57
2023-04-08T13:54:35.105Z,8.43
2023-04-08T13:57:37.142Z,11.10
2023-04-08T14:00:39.752Z,14.63
2023-04-08T14:38:00.867Z,9.40
2023-04-08T14:48:46.086Z,8.65
2023-04-08T15:09:57.619Z,10.15
2023-04-08T15:12:59.539Z,8.55
2023-04-08T15:16:01.680Z,10.57
2023-04-08T15:19:05.831Z,10.15
2023-04-08T15:22:07.769Z,10.47
2023-04-08T15:25:10.705Z,11.15
2023-04-08T15:28:12.846Z,10.15
2023-04-08T15:31:14.737Z,11.40
2023-04-08T15:34:16.968Z,9.23
2023-04-08T15:37:18.888Z,11.03
2023-04-08T15:40:21.589Z,10.73
2023-04-08T15:43:23.469Z,9.85
2023-04-08T15:46:26.757Z,13.38
2023-04-08T15:49:28.698Z,12.15
2023-04-08T15:52:31.913Z,16.43
2023-04-08T15:55:41.026Z,24.05
2023-04-08T15:58:43.055Z,26.20
2023-04-08T16:01:45.057Z,21.17
2023-04-08T16:04:47.099Z,19.17
2023-04-08T16:07:49.137Z,14.17
2023-04-08T16:10:51.355Z,16.85
2023-04-08T16:13:54.553Z,12.60
2023-04-08T16:16:57.715Z,13.23
2023-04-08T16:19:59.976Z,11.90
2023-04-08T16:23:01.908Z,13.77
2023-04-08T16:26:04.978Z,15.20
2023-04-08T16:29:07.548Z,11.55
2023-04-08T16:32:10.160Z,16.23
2023-04-08T16:35:13.259Z,18.45
2023-04-08T16:38:15.457Z,16.10
2023-04-08T16:41:17.558Z,23.70
2023-04-08T16:44:20.221Z,37.40
2023-04-08T16:47:22.309Z,39.53
2023-04-08T16:50:24.925Z,28.00
2023-04-08T16:53:26.770Z,13.20
2023-04-08T16:56:28.978Z,12.65
2023-04-08T16:59:30.889Z,11.98
2023-04-08T17:02:32.977Z,12.48
2023-04-08T17:05:34.893Z,12.88
2023-04-08T17:08:37.796Z,14.97
2023-04-08T17:11:40.403Z,13.00
2023-04-08T17:14:42.414Z,16.25
2023-04-08T17:17:44.430Z,12.95
2023-04-08T17:20:46.695Z,12.43
2023-04-08T17:23:48.860Z,14.23
2023-04-08T17:26:51.120Z,14.93
2023-04-08T17:30:00.891Z,14.13
2023-04-08T17:33:03.579Z,16.00
2023-04-08T17:36:06.584Z,20.27
2023-04-08T17:39:08.592Z,19.27
2023-04-08T17:42:11.409Z,15.43
2023-04-08T17:45:13.796Z,16.45
2023-04-08T17:48:15.931Z,14.23
2023-04-08T17:51:19.860Z,16.48
2023-04-08T17:54:22.011Z,13.60
2023-04-08T17:57:24.000Z,13.00
2023-04-08T18:00:27.500Z,13.10
2023-04-08T18:03:29.649Z,15.23
2023-04-08T18:06:32.414Z,14.05
2023-04-08T18:09:34.309Z,14.87
2023-04-08T18:12:36.275Z,14.15
2023-04-08T18:15:38.637Z,14.38
2023-04-08T18:18:40.638Z,15.88
2023-04-08T18:21:42.588Z,17.13
2023-04-08T18:24:44.463Z,14.50
2023-04-08T18:27:46.262Z,17.42
2023-04-08T18:30:51.572Z,16.15
2023-04-08T18:33:53.728Z,16.20
2023-04-08T18:36:55.743Z,15.43
2023-04-08T18:39:58.915Z,15.30
2023-04-08T18:43:03.523Z,23.13
2023-04-08T18:46:05.727Z,23.75
2023-04-08T18:49:07.609Z,19.95
2023-04-08T18:52:09.667Z,17.42
2023-04-08T18:55:12.130Z,17.73
2023-04-08T18:58:14.056Z,14.18
2023-04-08T19:01:19.149Z,12.93
2023-04-08T19:04:21.552Z,14.40
2023-04-08T19:07:23.798Z,16.48
2023-04-08T19:10:25.902Z,16.37
2023-04-08T19:13:28.062Z,17.08
2023-04-08T19:16:29.949Z,16.75
2023-04-08T19:19:32.705Z,16.42
2023-04-08T19:22:34.554Z,20.05
2023-04-08T19:25:36.590Z,20.17
2023-04-08T19:28:38.585Z,17.35
2023-04-08T19:31:40.959Z,19.85
2023-04-08T19:34:42.849Z,21.88
2023-04-08T19:37:44.821Z,18.40
2023-04-08T19:40:48.057Z,19.80
2023-04-08T19:43:50.119Z,21.83
2023-04-08T19:46:52.351Z,19.55
2023-04-08T19:49:54.299Z,15.48
2023-04-08T19:52:56.315Z,17.35
2023-04-08T19:56:00.694Z,16.00
2023-04-08T19:59:02.981Z,13.98
2023-04-08T20:02:05.053Z,11.65
2023-04-08T20:05:07.676Z,14.65
2023-04-08T20:08:09.515Z,11.88
2023-04-08T20:11:11.977Z,11.33
2023-04-08T20:14:14.368Z,13.32
2023-04-08T20:17:17.948Z,11.95
2023-04-08T20:20:20.872Z,12.25
2023-04-08T20:23:24.222Z,12.60
2023-04-08T20:26:26.177Z,9.50
2023-04-08T20:29:28.724Z,13.30
2023-04-08T20:32:31.142Z,14.48
2023-04-08T20:35:34.329Z,13.63
2023-04-08T20:38:36.935Z,14.55
2023-04-08T20:41:42.702Z,32.20
2023-04-08T20:44:44.596Z,43.75
2023-04-08T20:47:46.532Z,57.00
2023-04-08T20:50:49.176Z,17.27
2023-04-08T20:53:51.131Z,11.70
2023-04-08T20:56:53.040Z,13.53
2023-04-08T20:59:54.947Z,11.88
2023-04-08T21:02:57.086Z,11.75
2023-04-08T21:05:59.085Z,12.52
2023-04-08T21:09:01.238Z,14.15
2023-04-08T21:12:04.351Z,12.37
2023-04-08T21:15:06.629Z,12.60
2023-04-08T21:18:11.118Z,12.18
2023-04-08T21:21:13.179Z,11.02
2023-04-08T21:24:15.523Z,12.48
2023-04-08T21:27:18.018Z,11.83
2023-04-08T21:30:21.395Z,12.13
2023-04-08T21:33:24.625Z,12.70
2023-04-08T21:36:27.906Z,11.32
2023-04-08T21:39:32.813Z,12.23
2023-04-08T21:42:34.879Z,13.43
2023-04-08T21:45:36.718Z,12.07
2023-04-08T21:48:38.607Z,10.07
2023-04-08T21:51:41.032Z,13.07
2023-04-08T21:54:42.938Z,13.27
2023-04-08T21:57:44.747Z,15.17
2023-04-08T22:00:47.243Z,14.68
2023-04-08T22:03:49.675Z,14.00
2023-04-08T22:06:51.665Z,14.95
2023-04-08T22:09:54.548Z,13.32
2023-04-08T22:12:56.520Z,11.97
2023-04-08T22:15:58.394Z,12.32
2023-04-08T22:19:00.622Z,14.60
2023-04-08T22:22:02.692Z,18.00
2023-04-08T22:25:05.366Z,19.50
2023-04-08T22:28:07.661Z,17.93
2023-04-08T22:31:11.820Z,16.45
2023-04-08T22:34:13.826Z,16.27
2023-04-08T22:37:15.898Z,15.52
2023-04-08T22:40:18.081Z,15.30
2023-04-08T22:43:20.492Z,17.13
2023-04-08T22:46:22.380Z,16.42
2023-04-08T22:49:24.262Z,15.35
2023-04-08T22:52:26.165Z,16.38
2023-04-08T22:55:28.184Z,17.02
2023-04-08T22:58:30.372Z,15.23
2023-04-08T23:01:32.711Z,17.00
2023-04-08T23:04:34.841Z,16.67
2023-04-08T23:07:36.746Z,16.50
2023-04-08T23:10:38.926Z,17.60
2023-04-08T23:13:41.000Z,21.73
2023-04-08T23:16:42.800Z,23.45
2023-04-08T23:19:44.642Z,21.63
2023-04-08T23:22:46.571Z,23.35
2023-04-08T23:25:48.437Z,22.73
2023-04-08T23:28:50.895Z,23.77
2023-04-08T23:31:53.113Z,20.20
2023-04-08T23:34:55.257Z,23.50
2023-04-08T23:37:57.194Z,22.05
2023-04-08T23:40:59.414Z,20.95
2023-04-08T23:44:01.346Z,17.37
2023-04-08T23:47:03.197Z,15.07
2023-04-08T23:50:06.103Z,14.35
2023-04-08T23:53:08.068Z,15.10
2023-04-08T23:56:10.442Z,15.13
2023-04-08T23:59:12.295Z,15.80
